createdAt,value
2019-05-29T00:00:36.138Z,8.00
2019-05-29T00:03:06.283Z,7.90
2019-05-29T00:05:35.856Z,7.90
2019-05-29T00:08:06.373Z,7.90
2019-05-29T00:10:35.825Z,7.90
2019-05-29T00:13:06.200Z,7.90
2019-05-29T00:15:35.880Z,7.90
2019-05-29T00:18:06.294Z,7.80
2019-05-29T00:20:35.954Z,7.80
2019-05-29T00:23:06.439Z,7.70
2019-05-29T00:25:35.910Z,7.70
2019-05-29T00:28:06.414Z,7.70
2019-05-29T00:30:36.215Z,7.60
2019-05-29T00:33:05.987Z,7.60
2019-05-29T00:35:35.729Z,7.50
2019-05-29T00:38:06.425Z,7.40
2019-05-29T00:40:36.130Z,7.40
2019-05-29T00:43:07.202Z,7.40
2019-05-29T00:45:37.159Z,7.30
2019-05-29T00:48:07.678Z,7.30
2019-05-29T00:50:37.081Z,7.30
2019-05-29T00:53:06.567Z,7.20
2019-05-29T00:55:36.040Z,7.20
2019-05-29T00:58:05.487Z,7.30
2019-05-29T01:00:35.089Z,7.20
2019-05-29T01:03:05.883Z,7.20
2019-05-29T01:05:35.615Z,7.10
2019-05-29T01:08:05.431Z,7.00
2019-05-29T01:10:42.645Z,7.10
2019-05-29T01:16:43.680Z,7.00
2019-05-29T01:19:29.282Z,7.00
2019-05-29T01:22:08.330Z,6.90
2019-05-29T01:24:43.790Z,6.90
2019-05-29T01:27:14.980Z,6.90
2019-05-29T01:29:51.756Z,6.80
2019-05-29T01:32:26.488Z,6.80
2019-05-29T01:34:56.316Z,6.70
2019-05-29T01:37:26.471Z,6.70
2019-05-29T01:39:56.095Z,6.60
2019-05-29T01:42:25.759Z,6.60
2019-05-29T01:45:07.288Z,6.60
2019-05-29T01:47:26.100Z,6.40
2019-05-29T01:49:56.388Z,6.40
2019-05-29T01:52:25.716Z,6.40
2019-05-29T01:54:55.300Z,6.40
2019-05-29T01:57:24.906Z,6.30
2019-05-29T01:59:54.622Z,6.30
2019-05-29T02:02:24.007Z,6.30
2019-05-29T02:04:53.344Z,6.30
2019-05-29T02:07:23.984Z,6.30
2019-05-29T02:09:53.837Z,6.30
2019-05-29T02:12:24.458Z,6.30
2019-05-29T02:14:54.069Z,6.20
2019-05-29T02:17:23.842Z,6.20
2019-05-29T02:19:53.279Z,6.10
2019-05-29T02:22:23.094Z,6.00
2019-05-29T02:24:52.516Z,5.90
2019-05-29T02:27:21.894Z,5.90
2019-05-29T02:29:51.214Z,5.90
2019-05-29T02:32:21.369Z,5.90
2019-05-29T02:34:50.724Z,5.90
2019-05-29T02:37:20.241Z,5.90
2019-05-29T02:39:49.589Z,5.90
2019-05-29T02:42:20.871Z,5.90
2019-05-29T02:44:50.486Z,5.80
2019-05-29T02:47:21.571Z,5.80
2019-05-29T02:49:51.058Z,5.70
2019-05-29T02:52:21.855Z,5.70
2019-05-29T02:54:51.534Z,5.70
2019-05-29T02:57:22.812Z,5.70
2019-05-29T02:59:52.580Z,5.80
2019-05-29T03:02:23.411Z,5.80
2019-05-29T03:04:52.882Z,5.80
2019-05-29T03:07:24.238Z,5.80
2019-05-29T03:09:53.690Z,5.80
2019-05-29T03:12:23.018Z,5.70
2019-05-29T03:14:52.345Z,5.60
2019-05-29T03:17:23.475Z,5.50
2019-05-29T03:19:52.744Z,5.40
2019-05-29T03:22:22.059Z,5.40
2019-05-29T03:24:57.258Z,5.40
2019-05-29T03:27:27.817Z,5.40
2019-05-29T03:29:58.837Z,5.50
2019-05-29T03:32:31.808Z,5.40
2019-05-29T03:34:59.606Z,5.40
2019-05-29T03:43:53.824Z,5.30
2019-05-29T03:52:40.252Z,5.50
2019-05-29T03:55:10.024Z,5.50
2019-05-29T03:57:39.552Z,5.50
2019-05-29T04:00:11.210Z,5.50
2019-05-29T04:02:40.713Z,5.60
2019-05-29T04:05:10.760Z,5.60
2019-05-29T04:07:40.283Z,5.70
2019-05-29T04:10:09.974Z,5.70
2019-05-29T04:12:40.411Z,5.70
2019-05-29T04:15:10.185Z,5.70
2019-05-29T04:17:40.047Z,5.70
2019-05-29T04:20:10.160Z,5.70
2019-05-29T04:22:46.456Z,5.80
2019-05-29T04:25:16.181Z,5.90
2019-05-29T04:27:48.639Z,6.00
2019-05-29T04:30:18.472Z,6.10
2019-05-29T04:32:47.863Z,6.20
2019-05-29T04:35:17.239Z,6.30
2019-05-29T04:37:46.657Z,6.40
2019-05-29T04:40:16.144Z,6.40
2019-05-29T04:42:45.476Z,6.50
2019-05-29T04:45:15.435Z,6.60
2019-05-29T04:47:45.022Z,6.70
2019-05-29T04:50:14.717Z,6.80
2019-05-29T04:52:44.066Z,6.90
2019-05-29T04:55:13.833Z,7.10
2019-05-29T04:57:43.430Z,7.60
2019-05-29T05:00:14.789Z,8.00
2019-05-29T05:02:44.170Z,8.10
2019-05-29T05:05:13.903Z,8.20
2019-05-29T05:07:43.474Z,8.40
2019-05-29T05:10:14.412Z,8.40
2019-05-29T05:12:45.819Z,8.40
2019-05-29T05:15:21.028Z,8.50
2019-05-29T05:17:50.524Z,8.60
2019-05-29T05:20:19.853Z,9.00
2019-05-29T05:22:49.174Z,9.30
2019-05-29T05:25:18.571Z,9.30
2019-05-29T05:27:48.077Z,9.30
2019-05-29T05:30:28.103Z,9.30
2019-05-29T05:49:06.047Z,9.80
2019-05-29T06:18:00.568Z,10.70
2019-05-29T06:20:50.079Z,10.70
2019-05-29T06:23:26.338Z,10.80
2019-05-29T06:25:55.868Z,10.90
2019-05-29T06:28:25.302Z,10.90
2019-05-29T06:30:54.721Z,11.00
2019-05-29T06:33:24.306Z,11.20
2019-05-29T06:35:53.876Z,11.40
2019-05-29T06:38:23.235Z,11.50
2019-05-29T06:40:52.631Z,11.50
2019-05-29T06:43:23.695Z,11.60
2019-05-29T06:45:54.346Z,11.70
2019-05-29T06:48:57.960Z,11.70
2019-05-29T06:51:14.460Z,11.80
2019-05-29T06:53:44.120Z,11.90
2019-05-29T06:56:13.637Z,11.90
2019-05-29T06:58:44.172Z,11.90
2019-05-29T07:01:13.997Z,12.00
2019-05-29T07:03:44.114Z,12.10
2019-05-29T07:06:13.623Z,12.10
2019-05-29T07:08:47.349Z,12.40
2019-05-29T07:11:14.484Z,12.40
2019-05-29T07:13:47.727Z,12.50
2019-05-29T07:16:14.923Z,12.60
2019-05-29T07:19:20.574Z,12.70
2019-05-29T07:21:15.375Z,12.70
2019-05-29T07:23:56.050Z,12.70
2019-05-29T07:26:26.229Z,12.60
2019-05-29T07:29:07.570Z,12.60
2019-05-29T07:31:27.507Z,12.80
2019-05-29T07:33:57.105Z,12.90
2019-05-29T07:36:50.648Z,13.10
2019-05-29T07:39:49.843Z,13.10
2019-05-29T07:42:19.836Z,13.10
2019-05-29T07:44:50.092Z,13.20
2019-05-29T07:47:22.204Z,13.30
2019-05-29T07:49:52.000Z,13.40
2019-05-29T07:52:22.671Z,13.40
2019-05-29T07:54:52.137Z,13.50
2019-05-29T07:57:21.470Z,13.40
2019-05-29T07:59:50.779Z,13.40
2019-05-29T08:02:20.249Z,13.50
2019-05-29T08:04:50.008Z,13.50
2019-05-29T08:07:19.510Z,13.50
2019-05-29T08:09:49.804Z,13.60
2019-05-29T08:12:20.280Z,13.70
2019-05-29T08:14:50.379Z,13.80
2019-05-29T08:17:23.076Z,13.90
2019-05-29T08:20:03.212Z,14.00
2019-05-29T08:22:33.947Z,14.00
2019-05-29T08:24:55.019Z,14.10
2019-05-29T08:27:24.669Z,14.30
2019-05-29T08:29:54.092Z,14.30
2019-05-29T08:32:23.976Z,14.30
2019-05-29T08:34:53.461Z,14.40
2019-05-29T08:37:23.126Z,14.50
2019-05-29T08:39:52.547Z,14.50
2019-05-29T08:42:25.912Z,14.60
2019-05-29T08:44:55.379Z,14.80
2019-05-29T08:47:25.132Z,14.80
2019-05-29T08:49:54.918Z,14.60
2019-05-29T08:52:28.028Z,14.70
2019-05-29T08:55:03.832Z,14.70
2019-05-29T09:00:58.698Z,15.00
2019-05-29T09:03:40.938Z,15.10
2019-05-29T09:06:20.030Z,15.00
2019-05-29T09:12:05.464Z,15.10
2019-05-29T09:14:54.567Z,15.40
2019-05-29T09:30:13.843Z,15.50
2019-05-29T09:44:49.991Z,15.80
2019-05-29T09:47:28.944Z,15.80
2019-05-29T09:50:02.795Z,15.90
2019-05-29T09:52:32.669Z,15.90
2019-05-29T09:55:02.562Z,16.00
2019-05-29T09:57:33.302Z,16.00
2019-05-29T10:00:04.169Z,16.10
2019-05-29T10:02:34.031Z,16.20
2019-05-29T10:05:04.740Z,16.30
2019-05-29T10:07:34.407Z,16.40
2019-05-29T10:10:05.364Z,16.40
2019-05-29T10:12:34.948Z,16.60
2019-05-29T10:15:08.938Z,16.60
2019-05-29T10:17:38.708Z,16.60
2019-05-29T10:20:10.937Z,16.50
2019-05-29T10:22:40.760Z,16.30
2019-05-29T10:25:12.814Z,16.40
2019-05-29T10:27:42.375Z,16.50
2019-05-29T10:30:14.502Z,16.50
2019-05-29T10:32:44.530Z,16.50
2019-05-29T10:35:14.499Z,16.60
2019-05-29T10:37:44.534Z,16.70
2019-05-29T10:40:15.879Z,16.80
2019-05-29T10:42:45.259Z,16.80
2019-05-29T10:45:15.118Z,16.80
2019-05-29T10:47:45.510Z,16.90
2019-05-29T10:50:15.807Z,17.00
2019-05-29T10:52:45.832Z,17.10
2019-05-29T10:55:17.131Z,17.20
2019-05-29T10:57:48.954Z,17.20
2019-05-29T11:00:22.467Z,17.30
2019-05-29T11:02:54.736Z,17.30
2019-05-29T11:05:23.196Z,17.30
2019-05-29T11:07:54.026Z,17.50
2019-05-29T11:10:25.285Z,17.60
2019-05-29T11:12:54.935Z,17.50
2019-05-29T11:15:25.482Z,17.30
2019-05-29T11:17:58.347Z,17.60
2019-05-29T11:20:28.440Z,17.60
2019-05-29T11:23:00.161Z,17.60
2019-05-29T11:25:38.934Z,17.80
2019-05-29T11:28:08.634Z,17.90
2019-05-29T11:30:41.348Z,18.00
2019-05-29T11:33:15.817Z,18.20
2019-05-29T11:35:58.056Z,18.50
2019-05-29T11:38:16.564Z,18.40
2019-05-29T11:40:46.336Z,18.20
2019-05-29T11:43:15.882Z,18.60
2019-05-29T11:45:45.264Z,18.80
2019-05-29T11:48:14.858Z,18.90
2019-05-29T11:50:44.448Z,19.20
2019-05-29T11:53:13.783Z,20.90
2019-05-29T11:55:43.097Z,22.70
2019-05-29T11:58:29.752Z,24.50
2019-05-29T12:00:50.731Z,25.60
2019-05-29T12:04:06.318Z,26.70
2019-05-29T12:06:15.225Z,27.30
2019-05-29T12:08:49.530Z,28.40
2019-05-29T12:11:29.929Z,29.10
2019-05-29T12:14:00.542Z,29.70
2019-05-29T12:16:30.636Z,30.50
2019-05-29T12:19:01.867Z,30.40
2019-05-29T12:21:36.747Z,30.60
2019-05-29T12:24:07.255Z,30.20
2019-05-29T12:26:43.307Z,30.70
2019-05-29T12:29:30.074Z,31.20
2019-05-29T12:32:02.538Z,31.60
2019-05-29T12:34:32.894Z,32.50
2019-05-29T12:37:03.913Z,32.60
2019-05-29T12:39:35.103Z,32.60
2019-05-29T12:45:34.594Z,33.40
2019-05-29T12:48:17.932Z,33.90
2019-05-29T12:53:44.583Z,33.80
2019-05-29T12:56:14.289Z,34.20
2019-05-29T12:58:43.879Z,34.80
2019-05-29T13:01:13.268Z,34.60
2019-05-29T13:03:45.580Z,35.20
2019-05-29T13:06:14.080Z,35.10
2019-05-29T13:08:43.545Z,35.10
2019-05-29T13:11:12.984Z,35.80
2019-05-29T13:13:42.461Z,36.20
2019-05-29T13:16:12.200Z,35.90
2019-05-29T13:18:41.749Z,35.70
2019-05-29T13:21:11.825Z,33.90
2019-05-29T13:23:45.152Z,31.10
2019-05-29T13:26:13.146Z,31.80
2019-05-29T13:28:42.557Z,33.40
2019-05-29T13:31:12.783Z,33.30
2019-05-29T13:33:42.317Z,33.90
2019-05-29T13:36:11.737Z,35.80
2019-05-29T13:38:41.703Z,37.00
2019-05-29T13:41:11.178Z,35.70
2019-05-29T13:43:41.090Z,36.20
2019-05-29T13:46:10.877Z,37.30
2019-05-29T13:48:40.578Z,36.40
2019-05-29T13:51:10.105Z,34.50
2019-05-29T13:53:39.517Z,33.70
2019-05-29T13:56:09.297Z,34.40
2019-05-29T13:58:38.831Z,35.60
2019-05-29T14:01:08.406Z,36.30
2019-05-29T14:03:37.903Z,36.30
2019-05-29T14:06:07.952Z,35.50
2019-05-29T14:08:38.470Z,36.00
2019-05-29T14:11:09.046Z,35.60
2019-05-29T14:13:38.622Z,34.80
2019-05-29T14:16:08.489Z,34.40
2019-05-29T14:18:37.927Z,34.30
2019-05-29T14:21:07.483Z,34.20
2019-05-29T14:23:39.517Z,34.90
2019-05-29T14:26:08.580Z,35.90
2019-05-29T14:28:39.833Z,35.90
2019-05-29T14:31:10.016Z,35.90
2019-05-29T14:33:39.726Z,35.40
2019-05-29T14:36:11.460Z,36.40
2019-05-29T14:38:41.388Z,36.80
2019-05-29T14:41:12.396Z,36.90
2019-05-29T14:43:43.784Z,35.50
2019-05-29T14:46:13.862Z,34.20
2019-05-29T14:48:46.752Z,34.20
2019-05-29T14:51:16.699Z,35.10
2019-05-29T14:53:46.377Z,35.10
2019-05-29T14:56:16.531Z,35.30
2019-05-29T14:58:46.066Z,35.30
2019-05-29T15:01:16.679Z,35.30
2019-05-29T15:03:46.117Z,35.70
2019-05-29T15:06:16.775Z,36.20
2019-05-29T15:08:46.646Z,36.10
2019-05-29T15:11:16.023Z,36.40
2019-05-29T15:13:45.800Z,37.00
2019-05-29T15:16:15.132Z,36.50
2019-05-29T15:18:45.522Z,35.70
2019-05-29T15:21:15.400Z,35.50
2019-05-29T15:23:44.794Z,35.10
2019-05-29T15:26:14.221Z,35.00
2019-05-29T15:28:43.822Z,34.70
2019-05-29T15:31:14.649Z,35.30
2019-05-29T15:33:44.143Z,36.00
2019-05-29T15:36:14.623Z,36.40
2019-05-29T15:38:45.009Z,36.10
2019-05-29T15:41:14.896Z,35.00
2019-05-29T15:43:44.619Z,32.60
2019-05-29T15:46:15.923Z,31.60
2019-05-29T15:48:47.506Z,32.90
2019-05-29T15:51:19.355Z,34.20
2019-05-29T15:53:49.110Z,35.20
2019-05-29T16:23:59.924Z,34.90
2019-05-29T16:26:30.197Z,34.90
2019-05-29T16:29:00.024Z,35.40
2019-05-29T16:31:29.750Z,35.30
2019-05-29T16:33:59.331Z,35.40
2019-05-29T16:36:28.763Z,35.80
2019-05-29T16:38:58.596Z,35.20
2019-05-29T16:41:29.683Z,35.00
2019-05-29T16:43:59.491Z,35.30
2019-05-29T16:46:29.022Z,35.30
2019-05-29T16:48:58.541Z,35.20
2019-05-29T16:51:27.944Z,35.10
2019-05-29T16:53:57.952Z,35.40
2019-05-29T16:56:27.462Z,35.40
2019-05-29T16:58:56.891Z,35.20
2019-05-29T17:01:26.817Z,35.00
2019-05-29T17:03:56.362Z,34.40
2019-05-29T17:06:25.782Z,34.10
2019-05-29T17:08:55.302Z,34.40
2019-05-29T17:11:25.173Z,33.90
2019-05-29T17:13:55.720Z,34.00
2019-05-29T17:16:33.270Z,33.90
2019-05-29T17:19:20.677Z,33.00
2019-05-29T17:21:51.195Z,31.40
2019-05-29T17:24:20.988Z,29.80
2019-05-29T17:26:50.557Z,28.30
2019-05-29T17:29:20.814Z,27.20
2019-05-29T17:31:50.627Z,26.40
2019-05-29T17:34:21.073Z,25.70
2019-05-29T17:36:50.762Z,25.00
2019-05-29T17:39:27.867Z,24.30
2019-05-29T17:41:59.198Z,23.70
2019-05-29T17:44:28.798Z,23.40
2019-05-29T17:46:58.561Z,23.10
2019-05-29T17:49:34.038Z,22.80
2019-05-29T17:51:59.503Z,22.50
2019-05-29T17:54:29.249Z,22.30
2019-05-29T17:56:59.074Z,22.00
2019-05-29T17:59:29.999Z,21.80
2019-05-29T18:02:00.759Z,21.60
2019-05-29T18:04:30.549Z,21.50
2019-05-29T18:07:00.240Z,21.30
2019-05-29T18:09:32.370Z,21.20
2019-05-29T18:12:06.899Z,21.00
2019-05-29T18:14:39.062Z,20.90
2019-05-29T18:17:14.834Z,20.80
2019-05-29T18:19:47.874Z,20.60
2019-05-29T18:22:17.520Z,20.50
2019-05-29T18:24:51.527Z,20.30
2019-05-29T18:27:28.714Z,20.10
2019-05-29T18:30:04.622Z,20.00
2019-05-29T18:32:38.852Z,19.90
2019-05-29T18:35:10.322Z,19.70
2019-05-29T18:37:44.237Z,19.60
2019-05-29T18:40:14.824Z,19.40
2019-05-29T18:42:44.283Z,19.30
2019-05-29T18:45:20.766Z,19.10
2019-05-29T18:47:46.646Z,19.00
2019-05-29T18:50:16.669Z,18.90
2019-05-29T18:55:29.059Z,18.70
2019-05-29T18:58:01.788Z,18.60
2019-05-29T19:00:29.776Z,18.40
2019-05-29T19:02:59.613Z,18.30
2019-05-29T19:05:29.737Z,18.10
2019-05-29T19:08:00.612Z,18.00
2019-05-29T19:10:30.319Z,17.80
2019-05-29T19:13:00.141Z,17.70
2019-05-29T19:15:30.139Z,17.60
2019-05-29T19:17:59.707Z,17.50
2019-05-29T19:20:30.477Z,17.40
2019-05-29T19:23:00.352Z,17.30
2019-05-29T19:25:30.845Z,17.10
2019-05-29T19:28:05.473Z,16.90
2019-05-29T19:30:35.375Z,16.90
2019-05-29T19:33:05.035Z,16.80
2019-05-29T19:35:34.905Z,16.60
2019-05-29T19:38:04.995Z,16.50
2019-05-29T19:40:34.671Z,16.40
2019-05-29T19:43:04.378Z,16.30
2019-05-29T19:45:34.719Z,16.20
2019-05-29T19:48:04.497Z,16.10
2019-05-29T19:50:35.020Z,16.00
2019-05-29T19:53:04.743Z,15.90
2019-05-29T19:55:37.810Z,15.80
2019-05-29T19:58:05.783Z,15.70
2019-05-29T20:00:36.278Z,15.60
2019-05-29T20:03:06.071Z,15.60
2019-05-29T20:05:36.972Z,15.50
2019-05-29T20:08:06.626Z,15.50
2019-05-29T20:10:37.495Z,15.50
2019-05-29T20:13:07.057Z,15.60
2019-05-29T20:15:36.568Z,15.60
2019-05-29T20:18:06.071Z,15.70
2019-05-29T20:20:36.438Z,15.60
2019-05-29T20:23:06.447Z,15.50
2019-05-29T20:25:36.990Z,15.50
2019-05-29T20:28:07.736Z,15.50
2019-05-29T20:30:38.594Z,15.40
2019-05-29T20:33:08.598Z,15.30
2019-05-29T20:35:39.142Z,15.20
2019-05-29T20:38:08.745Z,15.00
2019-05-29T20:40:39.334Z,14.90
2019-05-29T20:43:08.944Z,14.80
2019-05-29T20:45:39.753Z,14.80
2019-05-29T20:48:09.360Z,14.90
2019-05-29T20:50:39.193Z,15.00
2019-05-29T20:53:10.000Z,15.10
2019-05-29T20:55:39.845Z,15.10
2019-05-29T20:58:23.512Z,15.20
2019-05-29T21:00:40.712Z,15.10
2019-05-29T21:03:10.064Z,15.10
2019-05-29T21:05:40.715Z,15.00
2019-05-29T21:08:10.456Z,14.90
2019-05-29T21:10:40.326Z,14.90
2019-05-29T21:13:11.180Z,14.90
2019-05-29T21:15:41.817Z,14.80
2019-05-29T21:18:11.613Z,14.70
2019-05-29T21:20:42.530Z,14.60
2019-05-29T21:23:12.356Z,14.50
2019-05-29T21:25:42.899Z,14.40
2019-05-29T21:28:13.422Z,14.40
2019-05-29T21:30:43.737Z,14.30
2019-05-29T21:33:13.537Z,14.20
2019-05-29T21:35:44.270Z,14.20
2019-05-29T21:38:14.061Z,14.20
2019-05-29T21:40:44.567Z,14.20
2019-05-29T21:43:14.441Z,14.10
2019-05-29T21:45:45.180Z,14.10
2019-05-29T21:48:16.644Z,14.00
2019-05-29T21:50:47.443Z,14.10
2019-05-29T21:53:16.867Z,14.10
2019-05-29T21:55:47.722Z,14.20
2019-05-29T21:58:17.322Z,14.30
2019-05-29T22:00:51.132Z,14.30
2019-05-29T22:03:22.406Z,14.30
2019-05-29T22:05:52.101Z,14.40
2019-05-29T22:08:21.477Z,14.40
2019-05-29T22:10:51.514Z,14.40
2019-05-29T22:13:21.258Z,14.50
2019-05-29T22:15:50.726Z,14.50
2019-05-29T22:18:20.100Z,14.70
2019-05-29T22:20:50.946Z,14.80
2019-05-29T22:23:20.670Z,14.80
2019-05-29T22:25:51.109Z,14.90
2019-05-29T22:28:20.868Z,15.00
2019-05-29T22:30:51.251Z,15.00
2019-05-29T22:33:20.924Z,15.10
2019-05-29T22:35:52.714Z,15.10
2019-05-29T22:38:21.664Z,15.20
2019-05-29T22:40:52.183Z,15.20
2019-05-29T22:43:22.399Z,15.20
2019-05-29T22:45:53.604Z,15.30
2019-05-29T22:48:23.356Z,15.30
2019-05-29T22:50:53.837Z,15.30
2019-05-29T22:53:24.529Z,15.30
2019-05-29T22:55:53.859Z,15.20
2019-05-29T22:58:23.238Z,15.30
2019-05-29T23:00:53.955Z,15.30
2019-05-29T23:03:23.496Z,15.30
2019-05-29T23:05:54.039Z,15.30
2019-05-29T23:08:23.872Z,15.30
2019-05-29T23:10:54.163Z,15.20
2019-05-29T23:13:23.607Z,15.20
2019-05-29T23:15:54.479Z,15.20
2019-05-29T23:18:23.948Z,15.10
2019-05-29T23:20:54.364Z,15.10
2019-05-29T23:23:24.036Z,15.10
2019-05-29T23:25:54.462Z,15.10
2019-05-29T23:28:24.137Z,15.10
2019-05-29T23:30:54.756Z,15.10
2019-05-29T23:33:24.355Z,15.00
2019-05-29T23:35:54.796Z,15.10
2019-05-29T23:38:24.189Z,15.00
2019-05-29T23:40:53.548Z,15.00
2019-05-29T23:43:22.998Z,15.00
2019-05-29T23:45:53.274Z,15.00
2019-05-29T23:48:22.634Z,14.90
2019-05-29T23:50:53.339Z,14.90
2019-05-29T23:53:23.079Z,14.90
2019-05-29T23:55:54.163Z,14.90
2019-05-29T23:58:24.651Z,14.90
